AAL2393 KMIA-TBPB
Flight info
| Callsign | AAL2393 |
|---|---|
| Flight time | N/A |
| Altitude | 37000 |
| Route | KLADA2 BITAC Y290 HAGIT Y421 MEEGL DCT ILURI UA555 BGI |
| Aircraft | B38M/M-SDE1FGHILORVWXY/HB1 |
Departure
| Time | N/A |
|---|---|
| Airport | Miami International Airport (KMIA) |
Arrival
| Time | 2026-04-27 17:48 |
|---|---|
| Airport | Grantley Adams International Airport (TBPB) |
| Time | Latitude | Longitude | Altitude | Speed | Heading |
|---|---|---|---|---|---|
| 2026-04-27 17:00 | 15.10700 | -61.78802 | 24962 ft | 430 kts | 138° |
| 2026-04-27 17:01 | 15.08573 | -61.76627 | 24768 ft | 430 kts | 138° |
| 2026-04-27 17:01 | 15.06440 | -61.74446 | 24515 ft | 431 kts | 138° |
| 2026-04-27 17:01 | 15.04308 | -61.72266 | 24284 ft | 430 kts | 138° |
| 2026-04-27 17:01 | 15.02185 | -61.70096 | 24046 ft | 428 kts | 138° |
| 2026-04-27 17:02 | 15.00067 | -61.67932 | 23817 ft | 426 kts | 138° |
| 2026-04-27 17:02 | 14.97963 | -61.65783 | 23576 ft | 424 kts | 138° |
| 2026-04-27 17:02 | 14.95866 | -61.63643 | 23296 ft | 422 kts | 138° |
| 2026-04-27 17:02 | 14.93780 | -61.61513 | 23020 ft | 421 kts | 138° |
| 2026-04-27 17:03 | 14.91699 | -61.59391 | 22745 ft | 419 kts | 138° |
| 2026-04-27 17:03 | 14.89627 | -61.57279 | 22473 ft | 417 kts | 138° |
| 2026-04-27 17:03 | 14.87567 | -61.55178 | 22204 ft | 416 kts | 138° |
| 2026-04-27 17:03 | 14.85513 | -61.53083 | 21937 ft | 414 kts | 138° |
| 2026-04-27 17:04 | 14.83465 | -61.50996 | 21673 ft | 412 kts | 138° |
| 2026-04-27 17:04 | 14.81427 | -61.48919 | 21412 ft | 411 kts | 138° |
| 2026-04-27 17:04 | 14.79397 | -61.46852 | 21152 ft | 409 kts | 138° |
| 2026-04-27 17:04 | 14.77373 | -61.44791 | 20895 ft | 408 kts | 138° |
| 2026-04-27 17:05 | 14.75356 | -61.42737 | 20636 ft | 406 kts | 137° |
| 2026-04-27 17:05 | 14.73350 | -61.40694 | 20387 ft | 404 kts | 137° |
| 2026-04-27 17:05 | 14.71350 | -61.38659 | 20137 ft | 403 kts | 137° |
| 2026-04-27 17:05 | 14.70031 | -61.37316 | 19970 ft | 402 kts | 137° |
| 2026-04-27 17:06 | 14.67377 | -61.34617 | 19641 ft | 400 kts | 137° |
| 2026-04-27 17:06 | 14.65400 | -61.32607 | 19394 ft | 398 kts | 137° |
| 2026-04-27 17:06 | 14.63429 | -61.30603 | 19154 ft | 397 kts | 137° |
| 2026-04-27 17:06 | 14.61469 | -61.28614 | 18924 ft | 394 kts | 137° |
| 2026-04-27 17:07 | 14.59519 | -61.26632 | 18705 ft | 393 kts | 137° |
| 2026-04-27 17:07 | 14.57572 | -61.24656 | 18486 ft | 391 kts | 137° |
| 2026-04-27 17:07 | 14.55639 | -61.22692 | 18255 ft | 389 kts | 137° |
| 2026-04-27 17:07 | 14.53709 | -61.20734 | 18006 ft | 389 kts | 137° |
| 2026-04-27 17:08 | 14.51784 | -61.18780 | 17764 ft | 388 kts | 137° |
| 2026-04-27 17:08 | 14.49861 | -61.16829 | 17522 ft | 388 kts | 137° |
| 2026-04-27 17:08 | 14.47942 | -61.14884 | 17283 ft | 385 kts | 137° |
| 2026-04-27 17:08 | 14.46034 | -61.12947 | 17041 ft | 385 kts | 137° |
| 2026-04-27 17:09 | 14.44130 | -61.11019 | 16805 ft | 382 kts | 137° |
| 2026-04-27 17:09 | 14.42243 | -61.09106 | 16569 ft | 379 kts | 137° |
| 2026-04-27 17:09 | 14.40370 | -61.07207 | 16326 ft | 377 kts | 137° |
| 2026-04-27 17:09 | 14.38502 | -61.05313 | 16102 ft | 375 kts | 137° |
| 2026-04-27 17:10 | 14.36646 | -61.03434 | 15873 ft | 373 kts | 137° |
| 2026-04-27 17:10 | 14.34797 | -61.01562 | 15642 ft | 372 kts | 137° |
| 2026-04-27 17:10 | 14.32951 | -60.99693 | 15413 ft | 372 kts | 136° |
| 2026-04-27 17:10 | 14.31098 | -60.97819 | 15179 ft | 373 kts | 136° |
| 2026-04-27 17:11 | 14.29249 | -60.95949 | 14952 ft | 371 kts | 137° |
| 2026-04-27 17:11 | 14.25569 | -60.92227 | 14499 ft | 371 kts | 136° |
| 2026-04-27 17:11 | 14.23724 | -60.90363 | 14276 ft | 370 kts | 136° |
| 2026-04-27 17:12 | 14.20063 | -60.86660 | 13838 ft | 366 kts | 136° |
| 2026-04-27 17:12 | 14.18249 | -60.84826 | 13589 ft | 365 kts | 136° |
| 2026-04-27 17:12 | 14.16440 | -60.82999 | 13332 ft | 363 kts | 136° |
| 2026-04-27 17:13 | 14.14634 | -60.81174 | 13089 ft | 364 kts | 136° |
| 2026-04-27 17:13 | 14.12825 | -60.79348 | 12846 ft | 364 kts | 135° |
| 2026-04-27 17:13 | 14.11021 | -60.77527 | 12600 ft | 362 kts | 135° |
| 2026-04-27 17:13 | 14.09253 | -60.75743 | 12362 ft | 361 kts | 135° |
| 2026-04-27 17:14 | 14.07463 | -60.73936 | 12126 ft | 359 kts | 135° |
| 2026-04-27 17:14 | 14.05683 | -60.72143 | 11888 ft | 357 kts | 135° |
| 2026-04-27 17:14 | 14.03905 | -60.70350 | 11645 ft | 349 kts | 135° |
| 2026-04-27 17:14 | 14.02187 | -60.68618 | 11407 ft | 342 kts | 135° |
| 2026-04-27 17:15 | 14.00532 | -60.66949 | 11186 ft | 334 kts | 134° |
| 2026-04-27 17:15 | 13.98892 | -60.65298 | 10949 ft | 327 kts | 135° |
| 2026-04-27 17:15 | 13.97283 | -60.63677 | 10734 ft | 320 kts | 134° |
| 2026-04-27 17:15 | 13.95708 | -60.62092 | 10515 ft | 314 kts | 135° |
| 2026-04-27 17:16 | 13.94165 | -60.60537 | 10307 ft | 307 kts | 135° |
| 2026-04-27 17:16 | 13.92667 | -60.59029 | 10097 ft | 294 kts | 134° |
| 2026-04-27 17:16 | 13.91243 | -60.57595 | 9905 ft | 282 kts | 134° |
| 2026-04-27 17:16 | 13.89842 | -60.56186 | 9718 ft | 280 kts | 134° |
| 2026-04-27 17:17 | 13.88457 | -60.54790 | 9530 ft | 277 kts | 134° |
| 2026-04-27 17:17 | 13.87083 | -60.53407 | 9369 ft | 276 kts | 133° |
| 2026-04-27 17:17 | 13.85716 | -60.52032 | 9202 ft | 274 kts | 133° |
| 2026-04-27 17:18 | 13.82984 | -60.49286 | 8856 ft | 276 kts | 134° |
| 2026-04-27 17:18 | 13.81610 | -60.47905 | 8684 ft | 276 kts | 135° |
| 2026-04-27 17:18 | 13.80237 | -60.46525 | 8518 ft | 275 kts | 134° |
| 2026-04-27 17:18 | 13.78875 | -60.45155 | 8362 ft | 273 kts | 133° |
| 2026-04-27 17:19 | 13.77517 | -60.43788 | 8196 ft | 273 kts | 133° |
| 2026-04-27 17:19 | 13.76159 | -60.42423 | 8036 ft | 273 kts | 134° |
| 2026-04-27 17:19 | 13.74799 | -60.41057 | 7893 ft | 274 kts | 134° |
| 2026-04-27 17:19 | 13.73429 | -60.39683 | 7751 ft | 275 kts | 134° |
| 2026-04-27 17:20 | 13.72065 | -60.38312 | 7610 ft | 274 kts | 134° |
| 2026-04-27 17:20 | 13.70708 | -60.36946 | 7470 ft | 272 kts | 133° |
| 2026-04-27 17:20 | 13.69811 | -60.36047 | 7384 ft | 271 kts | 133° |
| 2026-04-27 17:20 | 13.68449 | -60.34679 | 7238 ft | 270 kts | 133° |
| 2026-04-27 17:21 | 13.67128 | -60.33353 | 7108 ft | 267 kts | 133° |
| 2026-04-27 17:21 | 13.65802 | -60.32021 | 6967 ft | 266 kts | 133° |
| 2026-04-27 17:21 | 13.64473 | -60.30688 | 6831 ft | 268 kts | 133° |
| 2026-04-27 17:21 | 13.63138 | -60.29349 | 6699 ft | 269 kts | 133° |
| 2026-04-27 17:22 | 13.61807 | -60.28014 | 6570 ft | 265 kts | 133° |
| 2026-04-27 17:22 | 13.60492 | -60.26695 | 6436 ft | 263 kts | 132° |
| 2026-04-27 17:22 | 13.59179 | -60.25380 | 6283 ft | 264 kts | 133° |
| 2026-04-27 17:22 | 13.57860 | -60.24056 | 6150 ft | 265 kts | 133° |
| 2026-04-27 17:23 | 13.56546 | -60.22739 | 6007 ft | 262 kts | 133° |
| 2026-04-27 17:23 | 13.55245 | -60.21435 | 5865 ft | 260 kts | 133° |
| 2026-04-27 17:23 | 13.53947 | -60.20135 | 5719 ft | 262 kts | 133° |
| 2026-04-27 17:23 | 13.52644 | -60.18830 | 5604 ft | 262 kts | 134° |
| 2026-04-27 17:24 | 13.51347 | -60.17530 | 5493 ft | 259 kts | 133° |
| 2026-04-27 17:24 | 13.50060 | -60.16241 | 5366 ft | 258 kts | 133° |
| 2026-04-27 17:24 | 13.48775 | -60.14956 | 5244 ft | 259 kts | 133° |
| 2026-04-27 17:24 | 13.47486 | -60.13666 | 5135 ft | 258 kts | 133° |
| 2026-04-27 17:25 | 13.46198 | -60.12377 | 5016 ft | 258 kts | 134° |
| 2026-04-27 17:25 | 13.44911 | -60.11089 | 4902 ft | 258 kts | 134° |
| 2026-04-27 17:25 | 13.43629 | -60.09805 | 4790 ft | 257 kts | 134° |
| 2026-04-27 17:25 | 13.42354 | -60.08527 | 4671 ft | 256 kts | 133° |
| 2026-04-27 17:26 | 13.41087 | -60.07259 | 4551 ft | 253 kts | 134° |
| 2026-04-27 17:26 | 13.39823 | -60.05994 | 4435 ft | 253 kts | 133° |
| 2026-04-27 17:26 | 13.38560 | -60.04732 | 4316 ft | 253 kts | 133° |
| 2026-04-27 17:26 | 13.37296 | -60.03468 | 4197 ft | 254 kts | 134° |
| 2026-04-27 17:27 | 13.36032 | -60.02204 | 4084 ft | 253 kts | 134° |
| 2026-04-27 17:27 | 13.34771 | -60.00944 | 3970 ft | 252 kts | 134° |
| 2026-04-27 17:27 | 13.33524 | -59.99697 | 3853 ft | 249 kts | 134° |
| 2026-04-27 17:27 | 13.32282 | -59.98457 | 3737 ft | 249 kts | 134° |
| 2026-04-27 17:28 | 13.31045 | -59.97221 | 3626 ft | 248 kts | 133° |
| 2026-04-27 17:28 | 13.29804 | -59.95983 | 3509 ft | 249 kts | 134° |
| 2026-04-27 17:28 | 13.27316 | -59.93497 | 3271 ft | 251 kts | 134° |
| 2026-04-27 17:29 | 13.26065 | -59.92247 | 3153 ft | 251 kts | 133° |
| 2026-04-27 17:29 | 13.24821 | -59.91005 | 3049 ft | 248 kts | 133° |
| 2026-04-27 17:29 | 13.23588 | -59.89773 | 3016 ft | 247 kts | 133° |
| 2026-04-27 17:29 | 13.22356 | -59.88543 | 3017 ft | 248 kts | 133° |
| 2026-04-27 17:30 | 13.21119 | -59.87307 | 3020 ft | 247 kts | 133° |
| 2026-04-27 17:30 | 13.18655 | -59.84850 | 3013 ft | 247 kts | 133° |
| 2026-04-27 17:30 | 13.17439 | -59.83636 | 3010 ft | 247 kts | 134° |
| 2026-04-27 17:31 | 13.16192 | -59.82391 | 3006 ft | 247 kts | 133° |
| 2026-04-27 17:31 | 13.14964 | -59.81167 | 3002 ft | 246 kts | 133° |
| 2026-04-27 17:31 | 13.13736 | -59.79942 | 3004 ft | 247 kts | 133° |
| 2026-04-27 17:31 | 13.12502 | -59.78711 | 3004 ft | 248 kts | 133° |
| 2026-04-27 17:32 | 13.11278 | -59.77492 | 3010 ft | 248 kts | 133° |
| 2026-04-27 17:32 | 13.08915 | -59.74946 | 2989 ft | 243 kts | 117° |
| 2026-04-27 17:32 | 13.08421 | -59.73320 | 3004 ft | 240 kts | 96° |
| 2026-04-27 17:33 | 13.08321 | -59.71600 | 3005 ft | 243 kts | 92° |
| 2026-04-27 17:33 | 13.07978 | -59.69921 | 2979 ft | 243 kts | 119° |
| 2026-04-27 17:33 | 13.06742 | -59.68764 | 2978 ft | 248 kts | 154° |
| 2026-04-27 17:33 | 13.05052 | -59.68298 | 3010 ft | 255 kts | 165° |
| 2026-04-27 17:34 | 13.03327 | -59.67893 | 2983 ft | 252 kts | 154° |
| 2026-04-27 17:34 | 13.02011 | -59.66810 | 2984 ft | 242 kts | 118° |
| 2026-04-27 17:34 | 13.01456 | -59.65197 | 3011 ft | 242 kts | 102° |
| 2026-04-27 17:34 | 13.01405 | -59.63510 | 2935 ft | 237 kts | 75° |
| 2026-04-27 17:35 | 13.02108 | -59.61984 | 2817 ft | 238 kts | 62° |
| 2026-04-27 17:35 | 13.02930 | -59.60528 | 2633 ft | 231 kts | 62° |
| 2026-04-27 17:35 | 13.03728 | -59.59148 | 2427 ft | 219 kts | 62° |
| 2026-04-27 17:35 | 13.04774 | -59.58055 | 2183 ft | 215 kts | 36° |
| 2026-04-27 17:36 | 13.06145 | -59.57595 | 2135 ft | 201 kts | 16° |
| 2026-04-27 17:36 | 13.07317 | -59.57004 | 2050 ft | 182 kts | 50° |
| 2026-04-27 17:36 | 13.07913 | -59.55909 | 2050 ft | 175 kts | 77° |
| 2026-04-27 17:36 | 13.08038 | -59.54669 | 1989 ft | 176 kts | 91° |
| 2026-04-27 17:37 | 13.07993 | -59.53417 | 2057 ft | 176 kts | 93° |
| 2026-04-27 17:37 | 13.07761 | -59.52201 | 1971 ft | 178 kts | 120° |
| 2026-04-27 17:37 | 13.06739 | -59.51513 | 1865 ft | 185 kts | 166° |
| 2026-04-27 17:37 | 13.05430 | -59.51430 | 2048 ft | 191 kts | 174° |
| 2026-04-27 17:38 | 13.04120 | -59.51740 | 1989 ft | 202 kts | 210° |
| 2026-04-27 17:38 | 13.03043 | -59.52678 | 1981 ft | 205 kts | 219° |
| 2026-04-27 17:38 | 13.01998 | -59.53688 | 2004 ft | 207 kts | 219° |
| 2026-04-27 17:38 | 13.00943 | -59.54694 | 2011 ft | 207 kts | 219° |
| 2026-04-27 17:39 | 12.99894 | -59.55708 | 2023 ft | 208 kts | 219° |
| 2026-04-27 17:39 | 12.98846 | -59.56722 | 1992 ft | 207 kts | 219° |
| 2026-04-27 17:39 | 12.97795 | -59.57726 | 1987 ft | 206 kts | 219° |
| 2026-04-27 17:39 | 12.96741 | -59.58712 | 1999 ft | 204 kts | 219° |
| 2026-04-27 17:40 | 12.95689 | -59.59702 | 1982 ft | 206 kts | 219° |
| 2026-04-27 17:40 | 12.94628 | -59.60688 | 2008 ft | 207 kts | 219° |
| 2026-04-27 17:40 | 12.93573 | -59.61693 | 2011 ft | 208 kts | 219° |
| 2026-04-27 17:40 | 12.92567 | -59.62758 | 1982 ft | 211 kts | 238° |
| 2026-04-27 17:41 | 12.92222 | -59.64193 | 1976 ft | 211 kts | 277° |
| 2026-04-27 17:41 | 12.92659 | -59.65607 | 2003 ft | 209 kts | 297° |
| 2026-04-27 17:41 | 12.93549 | -59.66738 | 1976 ft | 203 kts | 330° |
| 2026-04-27 17:41 | 12.94735 | -59.67532 | 1975 ft | 204 kts | 333° |
| 2026-04-27 17:42 | 12.95923 | -59.68312 | 2010 ft | 202 kts | 336° |
| 2026-04-27 17:42 | 12.97227 | -59.68594 | 1980 ft | 190 kts | 8° |
| 2026-04-27 17:42 | 12.98549 | -59.68481 | 2020 ft | 192 kts | 10° |
| 2026-04-27 17:42 | 12.99879 | -59.68360 | 2013 ft | 192 kts | 11° |
| 2026-04-27 17:43 | 13.01200 | -59.68254 | 1994 ft | 184 kts | 14° |
| 2026-04-27 17:43 | 13.02301 | -59.67790 | 1966 ft | 165 kts | 46° |
| 2026-04-27 17:43 | 13.03114 | -59.66959 | 1986 ft | 166 kts | 53° |
| 2026-04-27 17:43 | 13.03726 | -59.65977 | 2012 ft | 162 kts | 68° |
| 2026-04-27 17:44 | 13.04134 | -59.64891 | 1983 ft | 165 kts | 76° |
| 2026-04-27 17:44 | 13.04327 | -59.63746 | 1879 ft | 161 kts | 86° |
| 2026-04-27 17:44 | 13.04386 | -59.62604 | 1800 ft | 160 kts | 88° |
| 2026-04-27 17:44 | 13.04477 | -59.61466 | 1783 ft | 161 kts | 84° |
| 2026-04-27 17:45 | 13.04690 | -59.60338 | 1714 ft | 161 kts | 78° |
| 2026-04-27 17:45 | 13.04992 | -59.59243 | 1468 ft | 157 kts | 76° |
| 2026-04-27 17:45 | 13.05278 | -59.58197 | 1203 ft | 146 kts | 77° |
| 2026-04-27 17:45 | 13.05524 | -59.57216 | 1064 ft | 140 kts | 78° |
| 2026-04-27 17:46 | 13.05759 | -59.56240 | 1108 ft | 150 kts | 80° |
| 2026-04-27 17:46 | 13.05998 | -59.55191 | 1038 ft | 145 kts | 77° |
| 2026-04-27 17:46 | 13.06245 | -59.54207 | 843 ft | 141 kts | 78° |
| 2026-04-27 17:46 | 13.06489 | -59.53213 | 689 ft | 144 kts | 77° |
| 2026-04-27 17:47 | 13.06730 | -59.52235 | 486 ft | 140 kts | 79° |
| 2026-04-27 17:47 | 13.06878 | -59.51595 | 381 ft | 140 kts | 79° |
| 2026-04-27 17:47 | 13.07198 | -59.50297 | 204 ft | 135 kts | 78° |
| 2026-04-27 17:47 | 13.07394 | -59.49493 | 178 ft | 86 kts | 76° |
| 2026-04-27 17:48 | 13.07487 | -59.49111 | 178 ft | 34 kts | 76° |
| 2026-04-27 17:48 | 13.07543 | -59.48988 | 177 ft | 16 kts | 50° |
| 2026-04-27 17:48 | 13.07618 | -59.48904 | 179 ft | 16 kts | 46° |
| 2026-04-27 17:48 | 13.07679 | -59.48840 | 179 ft | 11 kts | 47° |
| 2026-04-27 17:49 | 13.07715 | -59.48800 | 179 ft | 8 kts | 47° |
| 2026-04-27 17:49 | 13.07759 | -59.48751 | 180 ft | 10 kts | 50° |
| 2026-04-27 17:49 | 13.07785 | -59.48693 | 180 ft | 7 kts | 74° |
| 2026-04-27 17:49 | 13.07801 | -59.48633 | 180 ft | 10 kts | 75° |
| 2026-04-27 17:50 | 13.07820 | -59.48558 | 180 ft | 10 kts | 76° |
| 2026-04-27 17:50 | 13.07912 | -59.48555 | 180 ft | 0 kts | 345° |